createdAt,value
2018-08-28T00:00:04.700Z,19.30
2018-08-28T00:02:33.191Z,19.30
2018-08-28T00:05:02.807Z,19.30
2018-08-28T00:07:31.544Z,19.30
2018-08-28T00:10:00.580Z,19.30
2018-08-28T00:12:29.186Z,19.30
2018-08-28T00:14:57.690Z,19.30
2018-08-28T00:17:26.625Z,19.30
2018-08-28T00:19:55.119Z,19.20
2018-08-28T00:22:23.608Z,19.20
2018-08-28T00:24:52.163Z,19.20
2018-08-28T00:27:20.670Z,19.20
2018-08-28T00:29:49.484Z,19.20
2018-08-28T00:32:17.997Z,19.20
2018-08-28T00:34:46.500Z,19.20
2018-08-28T00:37:14.987Z,19.20
2018-08-28T00:39:43.486Z,19.20
2018-08-28T00:42:11.985Z,19.20
2018-08-28T00:44:40.475Z,19.20
2018-08-28T00:47:08.976Z,19.20
2018-08-28T00:49:37.471Z,19.10
2018-08-28T00:52:06.459Z,19.10
2018-08-28T00:54:34.947Z,19.20
2018-08-28T00:57:03.442Z,19.20
2018-08-28T00:59:31.939Z,19.10
2018-08-28T01:04:43.200Z,19.10
2018-08-28T01:07:11.705Z,19.10
2018-08-28T01:09:40.200Z,19.10
2018-08-28T01:12:08.695Z,19.10
2018-08-28T01:14:37.219Z,19.10
2018-08-28T01:17:05.705Z,19.10
2018-08-28T01:19:34.198Z,19.10
2018-08-28T01:22:02.691Z,19.10
2018-08-28T01:24:31.197Z,19.00
2018-08-28T01:27:00.067Z,19.00
2018-08-28T01:29:28.567Z,19.00
2018-08-28T01:31:57.061Z,19.00
2018-08-28T01:34:25.575Z,19.00
2018-08-28T01:36:54.075Z,19.00
2018-08-28T01:39:22.571Z,19.00
2018-08-28T01:41:51.067Z,19.00
2018-08-28T01:44:19.623Z,19.00
2018-08-28T01:46:48.574Z,19.00
2018-08-28T01:49:17.072Z,19.00
2018-08-28T01:51:45.572Z,19.00
2018-08-28T01:54:14.076Z,19.00
2018-08-28T01:56:42.573Z,19.00
2018-08-28T01:59:11.092Z,19.00
2018-08-28T02:01:39.584Z,19.00
2018-08-28T02:04:08.089Z,19.00
2018-08-28T02:06:36.594Z,19.00
2018-08-28T02:09:06.772Z,19.00
2018-08-28T02:11:35.274Z,19.00
2018-08-28T02:14:03.815Z,19.00
2018-08-28T02:16:32.433Z,19.00
2018-08-28T02:19:01.283Z,18.90
2018-08-28T02:21:29.811Z,18.90
2018-08-28T02:23:58.308Z,18.90
2018-08-28T02:26:26.855Z,18.90
2018-08-28T02:28:55.356Z,18.90
2018-08-28T02:31:23.864Z,18.90
2018-08-28T02:33:52.361Z,18.90
2018-08-28T02:36:20.912Z,18.90
2018-08-28T02:38:49.411Z,18.90
2018-08-28T02:41:17.924Z,18.80
2018-08-28T02:43:46.420Z,18.90
2018-08-28T02:46:14.919Z,18.90
2018-08-28T02:48:43.416Z,18.90
2018-08-28T02:51:12.526Z,18.90
2018-08-28T02:53:41.031Z,18.90
2018-08-28T02:56:09.577Z,18.80
2018-08-28T02:58:38.040Z,18.80
2018-08-28T03:01:06.551Z,18.80
2018-08-28T03:03:35.048Z,18.80
2018-08-28T03:06:03.599Z,18.80
2018-08-28T03:08:32.103Z,18.80
2018-08-28T03:11:00.618Z,18.80
2018-08-28T03:13:29.112Z,18.80
2018-08-28T03:15:57.693Z,18.80
2018-08-28T03:18:26.187Z,18.80
2018-08-28T03:20:54.690Z,18.80
2018-08-28T03:23:23.188Z,18.80
2018-08-28T03:25:51.700Z,18.80
2018-08-28T03:28:20.186Z,18.80
2018-08-28T03:30:48.707Z,18.80
2018-08-28T03:33:17.211Z,18.80
2018-08-28T03:35:45.723Z,18.70
2018-08-28T03:38:14.664Z,18.80
2018-08-28T03:40:43.180Z,18.70
2018-08-28T03:43:11.687Z,18.70
2018-08-28T03:45:40.195Z,18.70
2018-08-28T03:48:08.688Z,18.70
2018-08-28T03:50:37.463Z,18.70
2018-08-28T03:53:06.620Z,18.70
2018-08-28T03:55:35.159Z,18.70
2018-08-28T03:58:03.639Z,18.70
2018-08-28T04:00:32.135Z,18.70
2018-08-28T04:03:00.949Z,18.70
2018-08-28T04:05:29.683Z,18.70
2018-08-28T04:07:58.659Z,18.70
2018-08-28T04:10:28.186Z,18.70
2018-08-28T04:12:57.282Z,18.70
2018-08-28T04:15:25.832Z,18.70
2018-08-28T04:17:54.335Z,18.70
2018-08-28T04:20:22.834Z,18.60
2018-08-28T04:22:51.335Z,18.70
2018-08-28T04:25:19.843Z,18.70
2018-08-28T04:27:48.611Z,18.70
2018-08-28T04:30:17.182Z,18.70
2018-08-28T04:32:45.680Z,18.70
2018-08-28T04:35:14.191Z,18.70
2018-08-28T04:37:42.712Z,18.70
2018-08-28T04:40:11.200Z,18.70
2018-08-28T04:42:39.708Z,18.70
2018-08-28T04:45:08.199Z,18.70
2018-08-28T04:47:36.719Z,18.70
2018-08-28T04:50:05.717Z,18.80
2018-08-28T04:52:34.610Z,18.80
2018-08-28T04:55:03.199Z,18.80
2018-08-28T04:57:31.623Z,18.80
2018-08-28T05:00:00.120Z,18.90
2018-08-28T05:02:34.358Z,18.90
2018-08-28T05:05:04.197Z,18.90
2018-08-28T05:07:32.960Z,18.90
2018-08-28T05:10:01.475Z,19.00
2018-08-28T05:12:29.970Z,19.00
2018-08-28T05:14:59.021Z,19.10
2018-08-28T05:17:27.533Z,19.10
2018-08-28T05:19:56.049Z,19.30
2018-08-28T05:22:25.363Z,19.30
2018-08-28T05:24:53.972Z,19.40
2018-08-28T05:27:22.760Z,19.60
2018-08-28T05:29:51.261Z,19.60
2018-08-28T05:32:19.801Z,19.70
2018-08-28T05:34:48.355Z,19.80
2018-08-28T05:37:16.845Z,19.90
2018-08-28T05:39:45.582Z,20.00
2018-08-28T05:42:14.083Z,20.10
2018-08-28T05:44:42.583Z,20.20
2018-08-28T05:47:11.076Z,20.30
2018-08-28T05:49:39.671Z,20.30
2018-08-28T05:52:08.088Z,20.40
2018-08-28T05:54:36.585Z,20.50
2018-08-28T05:57:05.088Z,20.50
2018-08-28T05:59:33.582Z,20.60
2018-08-28T06:02:02.099Z,20.70
2018-08-28T06:04:30.607Z,20.80
2018-08-28T06:06:59.112Z,20.90
2018-08-28T06:09:27.620Z,21.00
2018-08-28T06:11:56.109Z,21.10
2018-08-28T06:14:24.611Z,21.20
2018-08-28T06:16:53.106Z,21.30
2018-08-28T06:19:21.595Z,21.40
2018-08-28T06:21:50.094Z,21.50
2018-08-28T06:24:18.624Z,21.60
2018-08-28T06:26:47.144Z,21.70
2018-08-28T06:29:15.664Z,21.80
2018-08-28T06:31:44.160Z,21.90
2018-08-28T06:34:12.672Z,22.00
2018-08-28T06:36:41.180Z,22.20
2018-08-28T06:39:10.327Z,22.30
2018-08-28T06:41:39.200Z,22.30
2018-08-28T06:44:07.920Z,22.40
2018-08-28T06:46:36.695Z,22.60
2018-08-28T06:49:05.188Z,22.70
2018-08-28T06:51:33.752Z,22.70
2018-08-28T06:54:02.247Z,22.70
2018-08-28T06:56:30.746Z,22.80
2018-08-28T06:58:59.235Z,22.80
2018-08-28T07:01:27.735Z,22.80
2018-08-28T07:03:56.299Z,22.90
2018-08-28T07:06:24.746Z,22.90
2018-08-28T07:08:53.239Z,23.10
2018-08-28T07:11:21.775Z,23.20
2018-08-28T07:13:50.284Z,23.40
2018-08-28T07:16:18.783Z,23.50
2018-08-28T07:18:47.337Z,23.60
2018-08-28T07:21:15.792Z,23.70
2018-08-28T07:23:44.631Z,23.90
2018-08-28T07:26:13.140Z,24.10
2018-08-28T07:28:41.680Z,24.20
2018-08-28T07:31:10.187Z,24.40
2018-08-28T07:33:38.716Z,24.50
2018-08-28T07:36:07.224Z,24.70
2018-08-28T07:38:35.720Z,24.80
2018-08-28T07:41:04.212Z,24.90
2018-08-28T07:43:32.719Z,25.00
2018-08-28T07:46:01.440Z,25.20
2018-08-28T07:48:30.033Z,25.30
2018-08-28T07:50:58.519Z,25.50
2018-08-28T07:53:27.026Z,25.60
2018-08-28T07:55:55.519Z,25.80
2018-08-28T07:58:24.019Z,25.90
2018-08-28T08:00:52.519Z,26.00
2018-08-28T08:03:23.788Z,26.10
2018-08-28T08:05:53.746Z,26.30
2018-08-28T08:08:22.599Z,26.30
2018-08-28T08:10:52.013Z,26.50
2018-08-28T08:13:20.907Z,26.60
2018-08-28T08:15:49.682Z,26.70
2018-08-28T08:18:18.191Z,26.70
2018-08-28T08:20:46.697Z,26.80
2018-08-28T08:23:15.199Z,26.90
2018-08-28T08:25:43.700Z,27.00
2018-08-28T08:28:12.343Z,27.00
2018-08-28T08:30:40.743Z,27.00
2018-08-28T08:33:09.238Z,27.00
2018-08-28T08:35:37.764Z,27.00
2018-08-28T08:38:06.631Z,26.90
2018-08-28T08:40:35.127Z,26.80
2018-08-28T08:43:03.638Z,26.80
2018-08-28T08:45:32.132Z,26.80
2018-08-28T08:48:00.635Z,26.80
2018-08-28T08:50:29.135Z,26.70
2018-08-28T08:52:57.648Z,26.70
2018-08-28T08:55:26.156Z,26.60
2018-08-28T08:57:54.654Z,26.60
2018-08-28T09:00:23.164Z,26.40
2018-08-28T09:02:51.940Z,26.30
2018-08-28T09:05:20.453Z,26.30
2018-08-28T09:07:49.307Z,26.10
2018-08-28T09:10:17.828Z,26.00
2018-08-28T09:12:46.319Z,26.00
2018-08-28T09:15:14.820Z,25.90
2018-08-28T09:17:43.328Z,25.70
2018-08-28T09:20:11.823Z,25.60
2018-08-28T09:22:40.871Z,25.50
2018-08-28T09:25:09.363Z,25.40
2018-08-28T09:27:37.865Z,25.30
2018-08-28T09:30:07.255Z,25.20
2018-08-28T09:32:35.751Z,25.20
2018-08-28T09:35:04.373Z,25.20
2018-08-28T09:37:32.908Z,25.10
2018-08-28T09:40:01.407Z,25.10
2018-08-28T09:42:30.283Z,25.00
2018-08-28T09:44:58.779Z,25.00
2018-08-28T09:47:27.279Z,25.00
2018-08-28T09:49:55.788Z,24.90
2018-08-28T09:52:24.299Z,24.90
2018-08-28T09:54:52.820Z,24.90
2018-08-28T09:57:21.320Z,24.80
2018-08-28T09:59:49.827Z,24.80
2018-08-28T10:02:18.376Z,24.70
2018-08-28T10:04:46.937Z,24.60
2018-08-28T10:07:15.381Z,24.60
2018-08-28T10:09:43.879Z,24.50
2018-08-28T10:12:12.381Z,24.40
2018-08-28T10:14:40.867Z,24.40
2018-08-28T10:17:09.396Z,24.30
2018-08-28T10:19:37.896Z,24.30
2018-08-28T10:22:06.504Z,24.30
2018-08-28T10:24:35.015Z,24.20
2018-08-28T10:27:03.508Z,24.10
2018-08-28T10:29:32.036Z,24.10
2018-08-28T10:32:00.538Z,24.10
2018-08-28T10:34:29.039Z,24.10
2018-08-28T10:36:57.540Z,24.10
2018-08-28T10:39:26.059Z,24.00
2018-08-28T10:41:54.577Z,24.00
2018-08-28T10:44:23.099Z,24.00
2018-08-28T10:46:51.763Z,23.90
2018-08-28T10:49:20.108Z,23.80
2018-08-28T10:51:48.670Z,23.80
2018-08-28T10:54:17.164Z,23.80
2018-08-28T10:56:45.676Z,23.80
2018-08-28T10:59:14.174Z,23.80
2018-08-28T11:01:43.026Z,23.70
2018-08-28T11:04:11.543Z,23.70
2018-08-28T11:06:40.047Z,23.80
2018-08-28T11:09:08.560Z,23.70
2018-08-28T11:11:37.379Z,23.70
2018-08-28T11:14:05.881Z,23.70
2018-08-28T11:16:34.408Z,23.70
2018-08-28T11:19:02.904Z,23.70
2018-08-28T11:21:31.404Z,23.70
2018-08-28T11:23:59.898Z,23.60
2018-08-28T11:26:28.400Z,23.60
2018-08-28T11:28:56.900Z,23.60
2018-08-28T11:31:25.485Z,23.50
2018-08-28T11:33:53.943Z,23.50
2018-08-28T11:36:22.439Z,23.50
2018-08-28T11:38:50.925Z,23.50
2018-08-28T11:41:19.434Z,23.60
2018-08-28T11:43:47.947Z,23.60
2018-08-28T11:46:16.459Z,23.50
2018-08-28T11:48:45.007Z,23.50
2018-08-28T11:51:13.744Z,23.50
2018-08-28T11:53:42.243Z,23.50
2018-08-28T11:56:10.742Z,23.50
2018-08-28T11:58:39.257Z,23.50
2018-08-28T12:01:07.767Z,23.50
2018-08-28T12:03:36.443Z,23.50
2018-08-28T12:06:04.959Z,23.50
2018-08-28T12:08:33.465Z,23.40
2018-08-28T12:11:01.971Z,23.40
2018-08-28T12:13:30.467Z,23.40
2018-08-28T12:15:58.970Z,23.40
2018-08-28T12:18:27.463Z,23.40
2018-08-28T12:20:56.012Z,23.40
2018-08-28T12:23:24.759Z,23.40
2018-08-28T12:25:53.250Z,23.30
2018-08-28T12:28:21.743Z,23.30
2018-08-28T12:30:50.247Z,23.40
2018-08-28T12:33:18.748Z,23.30
2018-08-28T12:35:47.262Z,23.30
2018-08-28T12:38:15.859Z,23.30
2018-08-28T12:40:44.351Z,23.30
2018-08-28T12:43:12.873Z,23.30
2018-08-28T12:45:41.379Z,23.30
2018-08-28T12:48:09.884Z,23.30
2018-08-28T12:50:38.404Z,23.30
2018-08-28T12:53:06.895Z,23.30
2018-08-28T12:55:35.395Z,23.30
2018-08-28T12:58:03.896Z,23.30
2018-08-28T13:00:32.445Z,23.30
2018-08-28T13:03:00.940Z,23.30
2018-08-28T13:05:29.431Z,23.30
2018-08-28T13:07:57.978Z,23.20
2018-08-28T13:10:26.871Z,23.20
2018-08-28T13:12:55.383Z,23.20
2018-08-28T13:15:23.895Z,23.20
2018-08-28T13:17:52.387Z,23.20
2018-08-28T13:20:20.883Z,23.20
2018-08-28T13:22:49.395Z,23.20
2018-08-28T13:25:17.952Z,23.20
2018-08-28T13:27:46.423Z,23.20
2018-08-28T13:30:14.921Z,23.20
2018-08-28T13:32:43.399Z,23.10
2018-08-28T13:35:11.923Z,23.10
2018-08-28T13:37:40.419Z,23.10
2018-08-28T13:40:10.067Z,23.10
2018-08-28T13:42:38.571Z,23.10
2018-08-28T13:45:07.528Z,23.10
2018-08-28T13:47:36.635Z,23.10
2018-08-28T13:50:05.128Z,23.10
2018-08-28T13:52:33.644Z,23.10
2018-08-28T13:55:02.171Z,23.10
2018-08-28T13:57:31.008Z,23.10
2018-08-28T13:59:59.607Z,23.10
2018-08-28T14:02:28.025Z,23.10
2018-08-28T14:04:56.526Z,23.10
2018-08-28T14:07:25.040Z,23.00
2018-08-28T14:09:53.559Z,23.00
2018-08-28T14:12:22.256Z,23.00
2018-08-28T14:14:51.431Z,23.00
2018-08-28T14:17:19.900Z,23.00
2018-08-28T14:19:48.641Z,23.00
2018-08-28T14:22:17.223Z,23.00
2018-08-28T14:24:45.634Z,23.00
2018-08-28T14:27:14.135Z,23.00
2018-08-28T14:29:42.644Z,23.00
2018-08-28T14:32:11.170Z,23.00
2018-08-28T14:34:39.673Z,22.90
2018-08-28T14:37:08.188Z,22.90
2018-08-28T14:39:36.735Z,22.90
2018-08-28T14:42:05.260Z,22.90
2018-08-28T14:44:33.815Z,22.90
2018-08-28T14:47:02.343Z,22.90
2018-08-28T14:49:30.852Z,22.90
2018-08-28T14:51:59.364Z,22.90
2018-08-28T14:54:27.884Z,22.90
2018-08-28T14:56:56.711Z,22.90
2018-08-28T14:59:25.219Z,22.90
2018-08-28T15:01:53.739Z,22.90
2018-08-28T15:04:22.240Z,22.90
2018-08-28T15:06:50.755Z,22.90
2018-08-28T15:09:19.264Z,22.80
2018-08-28T15:11:47.776Z,22.80
2018-08-28T15:14:16.280Z,22.80
2018-08-28T15:16:45.098Z,22.80
2018-08-28T15:19:14.043Z,22.80
2018-08-28T15:21:42.548Z,22.80
2018-08-28T15:24:11.059Z,22.70
2018-08-28T15:26:39.555Z,22.70
2018-08-28T15:29:08.044Z,22.70
2018-08-28T15:31:44.748Z,22.70
2018-08-28T15:34:13.248Z,22.70
2018-08-28T15:36:50.763Z,22.70
2018-08-28T15:39:19.264Z,22.70
2018-08-28T15:41:47.761Z,22.60
2018-08-28T15:44:16.259Z,22.60
2018-08-28T15:46:44.756Z,22.60
2018-08-28T15:49:13.247Z,22.60
2018-08-28T15:51:41.771Z,22.60
2018-08-28T15:54:10.255Z,22.60
2018-08-28T15:56:38.759Z,22.50
2018-08-28T15:59:07.319Z,22.50
2018-08-28T16:01:35.795Z,22.50
2018-08-28T16:04:04.291Z,22.50
2018-08-28T16:06:33.126Z,22.50
2018-08-28T16:09:01.615Z,22.40
2018-08-28T16:11:30.131Z,22.40
2018-08-28T16:13:58.624Z,22.40
2018-08-28T16:16:27.251Z,22.40
2018-08-28T16:18:55.776Z,22.40
2018-08-28T16:21:28.104Z,22.40
2018-08-28T16:23:56.627Z,22.40
2018-08-28T16:26:25.136Z,22.40
2018-08-28T16:28:53.631Z,22.40
2018-08-28T16:31:22.140Z,22.30
2018-08-28T16:33:50.696Z,22.30
2018-08-28T16:36:19.163Z,22.30
2018-08-28T16:38:47.666Z,22.30
2018-08-28T16:41:16.270Z,22.30
2018-08-28T16:43:44.679Z,22.30
2018-08-28T16:46:13.196Z,22.30
2018-08-28T16:48:41.695Z,22.30
2018-08-28T16:51:10.203Z,22.20
2018-08-28T16:53:38.695Z,22.20
2018-08-28T16:56:07.205Z,22.20
2018-08-28T16:58:35.742Z,22.20
2018-08-28T17:01:04.235Z,22.20
2018-08-28T17:03:32.732Z,22.20
2018-08-28T17:06:01.236Z,22.20
2018-08-28T17:08:29.735Z,22.20
2018-08-28T17:10:58.237Z,22.20
2018-08-28T17:13:26.734Z,22.20
2018-08-28T17:15:55.232Z,22.10
2018-08-28T17:18:23.722Z,22.20
2018-08-28T17:20:52.230Z,22.10
2018-08-28T17:23:20.720Z,22.10
2018-08-28T17:25:49.499Z,22.10
2018-08-28T17:28:18.228Z,22.10
2018-08-28T17:30:47.025Z,22.20
2018-08-28T17:33:15.595Z,22.20
2018-08-28T17:35:44.288Z,22.20
2018-08-28T17:38:12.780Z,22.20
2018-08-28T17:40:41.276Z,22.20
2018-08-28T17:43:09.771Z,22.20
2018-08-28T17:45:38.275Z,22.20
2018-08-28T17:48:06.791Z,22.10
2018-08-28T17:50:35.302Z,22.10
2018-08-28T17:53:03.812Z,22.00
2018-08-28T17:55:32.311Z,22.00
2018-08-28T17:58:00.993Z,21.90
2018-08-28T18:00:29.524Z,21.80
2018-08-28T18:03:12.242Z,21.80
2018-08-28T18:05:40.784Z,21.80
2018-08-28T18:08:09.279Z,21.70
2018-08-28T18:10:37.840Z,21.70
2018-08-28T18:13:06.363Z,21.60
2018-08-28T18:15:34.864Z,21.70
2018-08-28T18:18:03.391Z,21.70
2018-08-28T18:20:31.908Z,21.60
2018-08-28T18:23:00.407Z,21.60
2018-08-28T18:25:28.937Z,21.60
2018-08-28T18:27:57.471Z,21.60
2018-08-28T18:30:26.219Z,21.60
2018-08-28T18:32:54.733Z,21.60
2018-08-28T18:35:23.227Z,21.60
2018-08-28T18:37:51.727Z,21.60
2018-08-28T18:40:20.219Z,21.60
2018-08-28T18:42:48.720Z,21.50
2018-08-28T18:45:17.623Z,21.50
2018-08-28T18:47:46.343Z,21.50
2018-08-28T18:50:14.835Z,21.50
2018-08-28T18:52:43.338Z,21.50
2018-08-28T18:55:11.863Z,21.50
2018-08-28T18:57:40.383Z,21.50
2018-08-28T19:00:08.898Z,21.40
2018-08-28T19:02:37.443Z,21.50
2018-08-28T19:05:05.923Z,21.40
2018-08-28T19:07:34.466Z,21.40
2018-08-28T19:10:02.991Z,21.40
2018-08-28T19:12:31.491Z,21.40
2018-08-28T19:15:00.001Z,21.40
2018-08-28T19:17:28.508Z,21.30
2018-08-28T19:19:57.016Z,21.30
2018-08-28T19:22:25.504Z,21.30
2018-08-28T19:24:54.000Z,21.30
2018-08-28T19:27:22.503Z,21.30
2018-08-28T19:29:51.019Z,21.30
2018-08-28T19:32:19.703Z,21.30
2018-08-28T19:34:48.221Z,21.30
2018-08-28T19:37:16.778Z,21.20
2018-08-28T19:39:45.252Z,21.20
2018-08-28T19:42:13.748Z,21.20
2018-08-28T19:44:42.244Z,21.20
2018-08-28T19:47:10.747Z,21.20
2018-08-28T19:49:39.242Z,21.20
2018-08-28T19:52:07.736Z,21.20
2018-08-28T19:54:36.291Z,21.20
2018-08-28T19:57:04.882Z,21.20
2018-08-28T19:59:33.304Z,21.20
2018-08-28T20:02:01.820Z,21.10
2018-08-28T20:04:30.335Z,21.10
2018-08-28T20:06:58.822Z,21.10
2018-08-28T20:09:27.317Z,21.10
2018-08-28T20:11:55.819Z,21.10
2018-08-28T20:14:24.360Z,21.10
2018-08-28T20:16:52.827Z,21.10
2018-08-28T20:19:21.320Z,21.10
2018-08-28T20:21:49.815Z,21.00
2018-08-28T20:24:18.307Z,21.00
2018-08-28T20:26:46.828Z,21.00
2018-08-28T20:29:15.320Z,21.00
2018-08-28T20:31:43.807Z,21.00
2018-08-28T20:34:12.313Z,21.00
2018-08-28T20:36:40.813Z,21.00
2018-08-28T20:39:09.312Z,21.00
2018-08-28T20:41:38.057Z,20.90
2018-08-28T20:44:06.922Z,20.90
2018-08-28T20:46:35.442Z,20.90
2018-08-28T20:49:03.939Z,20.90
2018-08-28T20:51:32.432Z,20.90
2018-08-28T20:54:00.935Z,20.90
2018-08-28T20:56:32.401Z,20.90
2018-08-28T20:59:00.898Z,20.90
2018-08-28T21:01:29.763Z,20.90
2018-08-28T21:03:58.264Z,20.90
2018-08-28T21:06:26.839Z,20.90
2018-08-28T21:08:55.301Z,20.80
2018-08-28T21:11:23.819Z,20.80
2018-08-28T21:13:52.328Z,20.80
2018-08-28T21:16:20.832Z,20.80
2018-08-28T21:18:49.336Z,20.80
2018-08-28T21:21:17.835Z,20.80
2018-08-28T21:23:46.334Z,20.80
2018-08-28T21:26:14.839Z,20.80
2018-08-28T21:28:43.341Z,20.70
2018-08-28T21:31:11.841Z,20.70
2018-08-28T21:33:40.341Z,20.70
2018-08-28T21:36:08.848Z,20.70
2018-08-28T21:38:37.350Z,20.70
2018-08-28T21:41:05.845Z,20.70
2018-08-28T21:43:34.676Z,20.70
2018-08-28T21:46:03.200Z,20.70
2018-08-28T21:48:31.698Z,20.70
2018-08-28T21:51:00.191Z,20.70
2018-08-28T21:53:28.704Z,20.70
2018-08-28T21:55:57.196Z,20.70
2018-08-28T21:58:25.687Z,20.70
2018-08-28T22:00:59.335Z,20.60
2018-08-28T22:03:27.841Z,20.70
2018-08-28T22:05:56.342Z,20.60
2018-08-28T22:08:24.848Z,20.60
2018-08-28T22:10:53.343Z,20.60
2018-08-28T22:13:21.900Z,20.60
2018-08-28T22:15:50.355Z,20.60
2018-08-28T22:18:18.851Z,20.60
2018-08-28T22:20:52.441Z,20.60
2018-08-28T22:23:20.967Z,20.60
2018-08-28T22:25:49.459Z,20.50
2018-08-28T22:28:17.957Z,20.50
2018-08-28T22:30:46.455Z,20.50
2018-08-28T22:33:14.968Z,20.50
2018-08-28T22:35:43.832Z,20.50
2018-08-28T22:38:12.358Z,20.50
2018-08-28T22:40:40.868Z,20.50
2018-08-28T22:43:09.350Z,20.50
2018-08-28T22:45:38.215Z,20.50
2018-08-28T22:48:07.264Z,20.50
2018-08-28T22:50:36.260Z,20.50
2018-08-28T22:53:04.749Z,20.50
2018-08-28T22:55:33.252Z,20.50
2018-08-28T22:58:01.749Z,20.50
2018-08-28T23:00:30.438Z,20.50
2018-08-28T23:02:58.936Z,20.50
2018-08-28T23:05:27.436Z,20.40
2018-08-28T23:07:55.945Z,20.40
2018-08-28T23:10:24.451Z,20.40
2018-08-28T23:12:52.979Z,20.40
2018-08-28T23:15:21.475Z,20.40
2018-08-28T23:17:49.979Z,20.40
2018-08-28T23:20:18.480Z,20.40
2018-08-28T23:22:46.999Z,20.40
2018-08-28T23:25:15.491Z,20.40
2018-08-28T23:27:43.995Z,20.40
2018-08-28T23:30:12.508Z,20.30
2018-08-28T23:32:41.000Z,20.30
2018-08-28T23:35:09.527Z,20.30
2018-08-28T23:37:38.020Z,20.30
2018-08-28T23:40:06.526Z,20.30
2018-08-28T23:42:35.987Z,20.30
2018-08-28T23:45:05.185Z,20.30
2018-08-28T23:47:33.698Z,20.30
2018-08-28T23:50:02.240Z,20.30
2018-08-28T23:52:30.731Z,20.30
2018-08-28T23:54:59.235Z,20.30
2018-08-28T23:57:27.732Z,20.30
2018-08-28T23:59:56.236Z,20.30
